createdAt,value
2022-11-05T00:01:51.566Z,16.30
2022-11-05T00:04:58.251Z,16.98
2022-11-05T00:08:06.257Z,16.63
2022-11-05T00:10:52.063Z,15.40
2022-11-05T00:13:59.144Z,15.30
2022-11-05T00:16:45.444Z,11.07
2022-11-05T00:19:31.366Z,11.95
2022-11-05T00:22:36.654Z,11.73
2022-11-05T00:25:23.340Z,10.13
2022-11-05T00:28:15.716Z,10.40
2022-11-05T00:31:05.642Z,10.73
2022-11-05T00:33:52.617Z,16.10
2022-11-05T00:36:41.238Z,13.75
2022-11-05T00:39:29.443Z,9.38
2022-11-05T00:42:33.569Z,19.13
2022-11-05T00:45:32.238Z,13.32
2022-11-05T00:48:38.511Z,19.25
2022-11-05T00:51:26.443Z,14.85
2022-11-05T00:57:18.913Z,20.42
2022-11-05T01:03:00.193Z,13.48
2022-11-05T01:05:52.703Z,15.23
2022-11-05T01:08:41.043Z,17.00
2022-11-05T01:11:33.739Z,13.95
2022-11-05T01:14:19.556Z,14.93
2022-11-05T01:17:06.813Z,16.73
2022-11-05T01:19:52.621Z,15.77
2022-11-05T01:22:38.768Z,17.02
2022-11-05T01:25:25.021Z,21.75
2022-11-05T01:28:11.008Z,15.30
2022-11-05T01:30:57.232Z,17.75
2022-11-05T01:33:43.181Z,23.00
2022-11-05T01:36:29.156Z,18.30
2022-11-05T01:39:15.546Z,10.50
2022-11-05T01:42:01.693Z,17.80
2022-11-05T01:44:50.699Z,17.85
2022-11-05T01:47:36.864Z,16.98
2022-11-05T01:50:41.645Z,13.80
2022-11-05T01:53:30.554Z,18.48
2022-11-05T01:56:26.087Z,14.18
2022-11-05T01:59:14.745Z,14.32
2022-11-05T02:02:01.884Z,15.18
2022-11-05T02:05:02.336Z,16.70
2022-11-05T02:07:48.933Z,13.10
2022-11-05T02:10:35.123Z,11.45
2022-11-05T02:13:21.196Z,15.88
2022-11-05T02:16:13.394Z,13.15
2022-11-05T02:19:06.413Z,10.80
2022-11-05T02:22:11.180Z,8.85
2022-11-05T02:24:56.889Z,11.00
2022-11-05T02:28:01.493Z,11.50
2022-11-05T02:31:06.212Z,20.63
2022-11-05T02:33:56.809Z,14.57
2022-11-05T02:37:01.140Z,20.27
2022-11-05T02:39:59.095Z,12.95
2022-11-05T02:42:45.017Z,14.35
2022-11-05T02:45:34.062Z,16.92
2022-11-05T02:48:23.468Z,18.35
2022-11-05T02:51:12.850Z,18.20
2022-11-05T02:54:13.449Z,17.55
2022-11-05T02:57:00.660Z,19.45
2022-11-05T02:59:46.937Z,13.35
2022-11-05T03:02:33.575Z,19.40
2022-11-05T03:05:24.288Z,17.13
2022-11-05T03:08:16.349Z,16.92
2022-11-05T03:11:09.605Z,6.32
2022-11-05T03:14:02.753Z,15.60
2022-11-05T03:16:52.988Z,13.50
2022-11-05T03:19:58.218Z,19.80
2022-11-05T03:22:49.303Z,9.73
2022-11-05T03:25:39.349Z,15.38
2022-11-05T03:28:27.251Z,17.17
2022-11-05T03:31:14.570Z,16.17
2022-11-05T03:34:01.391Z,18.83
2022-11-05T03:36:49.072Z,15.32
2022-11-05T03:39:40.936Z,23.50
2022-11-05T03:42:30.028Z,15.50
2022-11-05T03:45:18.447Z,15.65
2022-11-05T03:48:05.446Z,17.40
2022-11-05T03:50:55.333Z,14.77
2022-11-05T03:53:47.484Z,15.45
2022-11-05T03:59:20.093Z,14.63
2022-11-05T04:02:06.565Z,19.40
2022-11-05T04:04:52.976Z,19.40
2022-11-05T04:07:57.315Z,21.95
2022-11-05T04:11:02.040Z,17.50
2022-11-05T04:13:47.854Z,18.27
2022-11-05T04:16:52.645Z,19.27
2022-11-05T04:20:00.044Z,23.08
2022-11-05T04:23:04.848Z,18.40
2022-11-05T04:25:51.060Z,14.55
2022-11-05T04:28:55.426Z,16.23
2022-11-05T04:31:41.413Z,19.58
2022-11-05T04:34:27.584Z,17.73
2022-11-05T04:37:13.596Z,15.07
2022-11-05T04:39:59.721Z,16.38
2022-11-05T04:42:45.705Z,32.35
2022-11-05T04:45:34.323Z,20.13
2022-11-05T04:48:20.203Z,18.90
2022-11-05T04:51:06.566Z,19.15
2022-11-05T04:53:52.310Z,21.92
2022-11-05T04:56:38.663Z,22.10
2022-11-05T04:59:24.678Z,19.58
2022-11-05T05:02:10.820Z,20.75
2022-11-05T05:04:56.866Z,18.15
2022-11-05T05:07:42.956Z,15.32
2022-11-05T05:10:29.078Z,16.48
2022-11-05T05:13:15.123Z,18.17
2022-11-05T05:16:04.853Z,16.10
2022-11-05T05:18:51.050Z,20.02
2022-11-05T05:21:40.590Z,19.70
2022-11-05T05:24:26.880Z,18.75
2022-11-05T05:27:13.214Z,15.45
2022-11-05T05:29:59.702Z,20.23
2022-11-05T05:32:45.649Z,14.77
2022-11-05T05:35:31.754Z,17.80
2022-11-05T05:38:17.830Z,14.88
2022-11-05T05:41:03.788Z,12.93
2022-11-05T05:43:50.111Z,16.15
2022-11-05T05:46:36.085Z,17.50
2022-11-05T05:49:22.120Z,22.73
2022-11-05T05:52:08.409Z,23.73
2022-11-05T05:54:54.634Z,17.50
2022-11-05T05:57:41.382Z,19.50
2022-11-05T06:00:27.861Z,15.75
2022-11-05T06:03:14.505Z,12.60
2022-11-05T06:06:01.398Z,13.77
2022-11-05T06:08:47.721Z,19.58
2022-11-05T06:11:33.567Z,33.67
2022-11-05T06:14:19.699Z,16.00
2022-11-05T06:17:06.818Z,15.45
2022-11-05T06:19:52.850Z,13.65
2022-11-05T06:22:39.294Z,13.02
2022-11-05T06:25:25.827Z,17.27
2022-11-05T06:28:11.602Z,18.10
2022-11-05T06:30:57.985Z,25.70
2022-11-05T06:33:43.942Z,13.65
2022-11-05T06:36:48.263Z,17.48
2022-11-05T06:39:34.973Z,20.58
2022-11-05T06:42:21.156Z,18.40
2022-11-05T06:45:07.766Z,25.00
2022-11-05T06:47:57.195Z,14.85
2022-11-05T06:50:46.245Z,18.50
2022-11-05T06:53:32.356Z,20.98
2022-11-05T06:56:18.415Z,17.08
2022-11-05T06:59:04.758Z,15.52
2022-11-05T07:01:51.102Z,24.77
2022-11-05T07:04:37.581Z,20.48
2022-11-05T07:07:23.329Z,15.98
2022-11-05T07:10:11.732Z,17.42
2022-11-05T07:12:57.585Z,20.25
2022-11-05T07:15:48.970Z,32.55
2022-11-05T07:18:36.387Z,25.13
2022-11-05T07:21:22.669Z,23.23
2022-11-05T07:24:08.726Z,17.02
2022-11-05T07:26:54.831Z,18.90
2022-11-05T07:29:40.899Z,26.92
2022-11-05T07:32:27.244Z,25.55
2022-11-05T07:35:14.379Z,19.83
2022-11-05T07:38:00.159Z,28.15
2022-11-05T07:40:46.340Z,21.88
2022-11-05T07:43:32.351Z,17.77
2022-11-05T07:46:24.190Z,20.83
2022-11-05T07:49:10.652Z,17.55
2022-11-05T07:51:56.784Z,18.23
2022-11-05T07:54:42.555Z,19.80
2022-11-05T07:57:28.644Z,16.23
2022-11-05T08:00:16.554Z,15.85
2022-11-05T08:03:07.652Z,17.52
2022-11-05T08:05:54.052Z,21.30
2022-11-05T08:08:40.121Z,20.67
2022-11-05T08:11:26.137Z,20.00
2022-11-05T08:14:12.145Z,18.88
2022-11-05T08:16:58.730Z,17.88
2022-11-05T08:19:44.505Z,14.93
2022-11-05T08:22:30.716Z,22.52
2022-11-05T08:25:16.929Z,18.73
2022-11-05T08:28:04.779Z,15.10
2022-11-05T08:30:51.472Z,14.95
2022-11-05T08:33:37.630Z,18.08
2022-11-05T08:36:24.324Z,16.85
2022-11-05T08:39:15.827Z,18.60
2022-11-05T08:42:04.341Z,15.73
2022-11-05T08:44:51.544Z,17.08
2022-11-05T08:47:37.541Z,14.52
2022-11-05T08:50:23.797Z,20.73
2022-11-05T08:53:11.323Z,16.02
2022-11-05T08:55:58.378Z,27.60
2022-11-05T08:58:44.410Z,17.23
2022-11-05T09:01:30.685Z,17.75
2022-11-05T09:04:16.741Z,26.40
2022-11-05T09:07:02.958Z,17.60
2022-11-05T09:09:48.915Z,21.30
2022-11-05T09:12:35.032Z,19.55
2022-11-05T09:15:21.216Z,20.02
2022-11-05T09:18:09.679Z,19.10
2022-11-05T09:20:55.584Z,12.50
2022-11-05T09:23:41.525Z,16.70
2022-11-05T09:26:27.424Z,17.10
2022-11-05T09:29:14.610Z,19.50
2022-11-05T09:32:00.639Z,15.75
2022-11-05T09:34:49.014Z,27.95
2022-11-05T09:37:35.865Z,17.02
2022-11-05T09:40:22.244Z,20.10
2022-11-05T09:43:17.924Z,24.10
2022-11-05T09:46:09.497Z,20.48
2022-11-05T09:49:03.399Z,18.27
2022-11-05T09:51:49.348Z,15.32
2022-11-05T09:54:35.518Z,22.08
2022-11-05T09:57:43.540Z,19.27
2022-11-05T10:00:31.471Z,26.50
2022-11-05T10:03:29.098Z,13.65
2022-11-05T10:06:20.556Z,23.77
2022-11-05T10:09:14.972Z,17.95
2022-11-05T10:12:05.134Z,16.42
2022-11-05T10:14:54.771Z,18.63
2022-11-05T10:17:42.588Z,19.02
2022-11-05T10:20:28.994Z,21.10
2022-11-05T10:23:16.983Z,18.65
2022-11-05T10:26:04.768Z,25.60
2022-11-05T10:28:51.225Z,124.65
2022-11-05T10:31:37.727Z,47.67
2022-11-05T10:34:25.721Z,28.83
2022-11-05T10:37:11.576Z,21.23
2022-11-05T10:39:57.899Z,25.55
2022-11-05T10:42:44.310Z,37.78
2022-11-05T10:45:30.876Z,21.42
2022-11-05T10:48:33.022Z,54.55
2022-11-05T10:51:19.080Z,31.88
2022-11-05T10:54:17.420Z,20.20
2022-11-05T10:57:26.185Z,24.60
2022-11-05T11:00:15.809Z,20.25
2022-11-05T11:03:03.438Z,19.45
2022-11-05T11:05:49.475Z,16.50
2022-11-05T11:08:36.866Z,16.08
2022-11-05T11:11:36.225Z,19.92
2022-11-05T11:14:22.525Z,14.95
2022-11-05T11:17:24.734Z,23.75
2022-11-05T11:20:29.304Z,25.63
2022-11-05T11:23:16.258Z,26.58
2022-11-05T11:26:02.798Z,25.98
2022-11-05T11:28:52.241Z,26.95
2022-11-05T11:31:40.283Z,23.85
2022-11-05T11:34:29.116Z,31.20
2022-11-05T11:37:23.085Z,20.85
2022-11-05T11:40:16.112Z,21.90
2022-11-05T11:43:28.740Z,29.02
2022-11-05T11:46:17.317Z,39.78
2022-11-05T11:49:03.942Z,30.40
2022-11-05T11:51:53.869Z,31.83
2022-11-05T11:54:40.405Z,29.58
2022-11-05T11:57:27.916Z,28.10
2022-11-05T12:00:14.838Z,29.50
2022-11-05T12:03:02.257Z,22.35
2022-11-05T12:05:54.071Z,18.20
2022-11-05T12:09:06.391Z,21.27
2022-11-05T12:12:08.936Z,23.63
2022-11-05T12:15:13.788Z,19.27
2022-11-05T12:18:05.041Z,15.57
2022-11-05T12:20:58.031Z,12.93
2022-11-05T12:23:57.151Z,23.25
2022-11-05T12:27:01.778Z,22.92
2022-11-05T12:30:00.019Z,20.23
2022-11-05T12:32:51.868Z,13.38
2022-11-05T12:36:05.065Z,15.32
2022-11-05T12:39:11.992Z,12.40
2022-11-05T12:42:16.608Z,15.82
2022-11-05T12:45:27.960Z,12.70
2022-11-05T12:48:14.787Z,12.60
2022-11-05T12:51:14.972Z,13.35
2022-11-05T12:54:29.758Z,16.25
2022-11-05T12:57:17.856Z,18.50
2022-11-05T13:00:16.651Z,19.35
2022-11-05T13:03:26.138Z,14.13
2022-11-05T13:06:13.741Z,22.10
2022-11-05T13:09:17.582Z,20.23
2022-11-05T13:12:05.189Z,29.58
2022-11-05T13:15:00.191Z,20.08
2022-11-05T13:17:55.406Z,15.32
2022-11-05T13:20:43.571Z,18.05
2022-11-05T13:23:34.662Z,18.70
2022-11-05T13:26:25.989Z,27.65
2022-11-05T13:29:32.255Z,19.03
2022-11-05T13:32:24.626Z,28.60
2022-11-05T13:38:18.196Z,32.35
2022-11-05T13:41:25.723Z,40.80
2022-11-05T13:44:39.139Z,27.42
2022-11-05T13:47:34.468Z,32.35
2022-11-05T13:50:23.519Z,31.05
2022-11-05T13:53:10.081Z,22.65
2022-11-05T13:56:14.578Z,29.58
2022-11-05T13:59:19.409Z,25.65
2022-11-05T14:02:13.176Z,25.73
2022-11-05T14:05:01.621Z,28.83
2022-11-05T14:07:49.792Z,36.67
2022-11-05T14:14:07.751Z,37.45
2022-11-05T14:16:55.223Z,34.72
2022-11-05T14:20:01.713Z,45.08
2022-11-05T14:22:57.291Z,41.63
2022-11-05T14:25:43.791Z,49.08
2022-11-05T14:28:35.789Z,45.38
2022-11-05T14:31:40.990Z,49.08
2022-11-05T14:34:42.259Z,33.83
2022-11-05T14:37:28.410Z,34.20
2022-11-05T14:40:27.180Z,42.72
2022-11-05T14:43:14.125Z,19.50
2022-11-05T14:46:01.983Z,19.15
2022-11-05T14:48:50.470Z,19.30
2022-11-05T14:51:38.500Z,21.73
2022-11-05T14:54:31.012Z,22.70
2022-11-05T14:57:37.109Z,28.05
2022-11-05T15:00:36.661Z,26.52
2022-11-05T15:03:30.746Z,28.40
2022-11-05T15:06:35.785Z,25.70
2022-11-05T15:09:28.795Z,31.50
2022-11-05T15:12:30.273Z,27.20
2022-11-05T15:15:21.994Z,31.48
2022-11-05T15:21:17.995Z,24.45
2022-11-05T15:24:04.081Z,16.20
2022-11-05T15:27:08.613Z,30.45
2022-11-05T15:29:54.411Z,22.58
2022-11-05T15:32:41.127Z,16.05
2022-11-05T15:35:28.778Z,19.15
2022-11-05T15:38:25.002Z,17.27
2022-11-05T15:41:21.651Z,27.95
2022-11-05T15:44:22.991Z,13.52
2022-11-05T15:47:18.097Z,18.27
2022-11-05T15:50:14.048Z,20.88
2022-11-05T15:53:20.703Z,17.10
2022-11-05T15:56:12.091Z,21.42
2022-11-05T15:59:01.148Z,19.38
2022-11-05T16:01:54.369Z,22.73
2022-11-05T16:04:45.768Z,33.63
2022-11-05T16:07:31.687Z,79.78
2022-11-05T16:10:20.366Z,48.85
2022-11-05T16:13:25.191Z,22.02
2022-11-05T16:16:13.979Z,26.40
2022-11-05T16:18:59.783Z,18.27
2022-11-05T16:21:55.076Z,26.30
2022-11-05T16:24:41.960Z,25.05
2022-11-05T16:27:28.241Z,21.17
2022-11-05T16:30:18.320Z,23.17
2022-11-05T16:33:06.068Z,22.50
2022-11-05T16:36:10.800Z,21.42
2022-11-05T16:38:57.406Z,20.17
2022-11-05T16:41:45.854Z,17.10
2022-11-05T16:44:35.049Z,17.20
2022-11-05T16:47:26.488Z,16.02
2022-11-05T16:50:29.557Z,22.03
2022-11-05T16:53:24.026Z,26.05
2022-11-05T16:56:13.282Z,24.90
2022-11-05T16:58:59.912Z,25.75
2022-11-05T17:01:47.470Z,34.55
2022-11-05T17:04:36.488Z,15.75
2022-11-05T17:07:22.185Z,15.23
2022-11-05T17:10:08.364Z,20.88
2022-11-05T17:12:54.501Z,16.70
2022-11-05T17:15:43.829Z,19.90
2022-11-05T17:18:30.538Z,16.17
2022-11-05T17:21:36.673Z,18.90
2022-11-05T17:24:22.830Z,18.40
2022-11-05T17:27:10.643Z,13.90
2022-11-05T17:29:58.544Z,14.57
2022-11-05T17:32:44.732Z,12.85
2022-11-05T17:35:31.116Z,31.65
2022-11-05T17:38:17.628Z,20.58
2022-11-05T17:41:13.596Z,13.70
2022-11-05T17:44:00.393Z,15.77
2022-11-05T17:46:46.377Z,13.15
2022-11-05T17:49:32.794Z,20.33
2022-11-05T17:52:22.032Z,16.17
2022-11-05T17:55:27.323Z,17.80
2022-11-05T17:58:13.250Z,16.48
2022-11-05T18:01:00.091Z,16.35
2022-11-05T18:03:46.775Z,16.45
2022-11-05T18:06:32.795Z,14.48
2022-11-05T18:09:37.774Z,22.05
2022-11-05T18:12:23.865Z,18.27
2022-11-05T18:15:10.077Z,15.68
2022-11-05T18:17:56.569Z,19.15
2022-11-05T18:20:43.736Z,18.30
2022-11-05T18:23:29.880Z,87.35
2022-11-05T18:26:16.737Z,53.80
2022-11-05T18:29:03.851Z,95.65
2022-11-05T18:31:51.137Z,112.00
2022-11-05T18:34:38.159Z,101.55
2022-11-05T18:37:24.457Z,103.25
2022-11-05T18:40:11.024Z,82.82
2022-11-05T18:42:56.930Z,63.65
2022-11-05T18:45:42.909Z,71.97
2022-11-05T18:48:28.985Z,78.03
2022-11-05T18:51:15.700Z,79.75
2022-11-05T18:54:01.836Z,62.00
2022-11-05T18:56:47.905Z,62.10
2022-11-05T18:59:38.722Z,59.63
2022-11-05T19:02:25.531Z,56.72
2022-11-05T19:08:16.974Z,62.30
2022-11-05T19:11:15.843Z,68.72
2022-11-05T19:14:03.601Z,69.95
2022-11-05T19:16:51.241Z,66.65
2022-11-05T19:19:37.411Z,81.15
2022-11-05T19:22:23.599Z,97.93
2022-11-05T19:25:10.725Z,59.25
2022-11-05T19:27:59.618Z,69.30
2022-11-05T19:30:45.817Z,79.65
2022-11-05T19:33:32.243Z,81.88
2022-11-05T19:36:20.646Z,79.07
2022-11-05T19:39:08.971Z,85.10
2022-11-05T19:42:01.983Z,107.85
2022-11-05T19:44:49.986Z,105.25
2022-11-05T19:47:36.607Z,102.95
2022-11-05T19:50:32.350Z,86.47
2022-11-05T19:53:18.963Z,87.22
2022-11-05T19:56:25.988Z,65.95
2022-11-05T19:59:12.706Z,69.47
2022-11-05T20:02:00.385Z,156.82
2022-11-05T20:04:47.682Z,116.47
2022-11-05T20:07:35.884Z,107.35
2022-11-05T20:10:25.441Z,96.28
2022-11-05T20:13:15.541Z,81.28
2022-11-05T20:16:05.820Z,100.65
2022-11-05T20:18:52.234Z,84.78
2022-11-05T20:21:40.523Z,83.95
2022-11-05T20:24:28.247Z,58.58
2022-11-05T20:27:15.621Z,53.65
2022-11-05T20:30:20.227Z,59.45
2022-11-05T20:33:06.175Z,57.63
2022-11-05T20:35:51.988Z,61.33
2022-11-05T20:38:38.124Z,50.83
2022-11-05T20:41:26.136Z,50.38
2022-11-05T20:44:18.533Z,41.90
2022-11-05T20:47:07.007Z,47.25
2022-11-05T20:49:53.709Z,45.72
2022-11-05T20:52:40.460Z,36.88
2022-11-05T20:55:26.905Z,41.22
2022-11-05T20:58:13.772Z,47.47
2022-11-05T21:01:05.297Z,44.78
2022-11-05T21:03:54.482Z,53.10
2022-11-05T21:06:41.065Z,36.97
2022-11-05T21:09:29.590Z,40.15
2022-11-05T21:12:15.707Z,40.38
2022-11-05T21:15:01.776Z,37.42
2022-11-05T21:17:48.010Z,34.03
2022-11-05T21:20:34.569Z,35.22
2022-11-05T21:23:22.118Z,38.55
2022-11-05T21:26:13.849Z,46.28
2022-11-05T21:29:19.043Z,43.47
2022-11-05T21:32:05.235Z,42.53
2022-11-05T21:35:09.482Z,43.67
2022-11-05T21:37:58.367Z,36.58
2022-11-05T21:40:45.448Z,61.83
2022-11-05T21:43:32.204Z,48.42
2022-11-05T21:46:18.089Z,44.63
2022-11-05T21:49:04.435Z,37.95
2022-11-05T21:52:09.408Z,29.63
2022-11-05T21:55:14.347Z,40.30
2022-11-05T21:58:19.366Z,32.95
2022-11-05T22:01:08.948Z,35.75
2022-11-05T22:04:02.677Z,42.13
2022-11-05T22:10:49.211Z,37.60
2022-11-05T22:13:40.836Z,47.72
2022-11-05T22:17:20.678Z,43.42
2022-11-05T22:20:20.809Z,22.10
2022-11-05T22:23:11.212Z,42.53
2022-11-05T22:25:58.739Z,24.17
2022-11-05T22:28:45.307Z,37.15
2022-11-05T22:31:35.943Z,42.22
2022-11-05T22:34:23.031Z,43.80
2022-11-05T22:37:18.037Z,40.40
2022-11-05T22:40:07.985Z,45.50
2022-11-05T22:42:54.079Z,46.78
2022-11-05T22:45:40.336Z,42.45
2022-11-05T22:48:29.809Z,46.30
2022-11-05T22:51:23.217Z,42.10
2022-11-05T22:54:20.305Z,40.28
2022-11-05T22:57:06.369Z,44.72
2022-11-05T22:59:52.334Z,42.00
2022-11-05T23:02:38.407Z,46.50
2022-11-05T23:05:24.639Z,58.05
2022-11-05T23:08:31.886Z,48.33
2022-11-05T23:11:42.807Z,68.70
2022-11-05T23:14:29.931Z,47.22
2022-11-05T23:17:34.736Z,30.15
2022-11-05T23:20:40.458Z,47.63
2022-11-05T23:23:47.662Z,42.50
2022-11-05T23:26:49.995Z,22.95
2022-11-05T23:29:39.257Z,43.35
2022-11-05T23:32:27.086Z,47.53
2022-11-05T23:35:13.219Z,38.88
2022-11-05T23:38:17.828Z,47.95
2022-11-05T23:41:23.350Z,24.13
2022-11-05T23:44:28.384Z,34.35
2022-11-05T23:47:32.853Z,37.78
2022-11-05T23:50:18.745Z,20.42
2022-11-05T23:53:04.465Z,39.63
2022-11-05T23:55:50.878Z,14.05
2022-11-05T23:58:37.329Z,49.28
